createdAt,value
2017-12-28T00:01:19.731Z,0.70
2017-12-28T00:03:47.337Z,0.80
2017-12-28T00:06:14.973Z,1.13
2017-12-28T00:08:42.537Z,0.90
2017-12-28T00:11:10.202Z,0.97
2017-12-28T00:13:38.062Z,0.70
2017-12-28T00:16:05.647Z,0.70
2017-12-28T00:18:33.241Z,0.87
2017-12-28T00:21:00.855Z,0.80
2017-12-28T00:23:28.417Z,0.80
2017-12-28T00:25:56.048Z,0.80
2017-12-28T00:28:23.629Z,0.80
2017-12-28T00:30:51.235Z,0.70
2017-12-28T00:33:18.871Z,0.80
2017-12-28T00:35:46.464Z,0.70
2017-12-28T00:38:14.153Z,0.70
2017-12-28T00:40:41.819Z,0.83
2017-12-28T00:43:09.372Z,0.70
2017-12-28T00:45:36.965Z,0.63
2017-12-28T00:48:04.593Z,0.80
2017-12-28T00:50:32.201Z,0.83
2017-12-28T00:53:00.173Z,0.60
2017-12-28T00:55:27.777Z,0.70
2017-12-28T00:57:55.348Z,0.63
2017-12-28T01:00:22.983Z,0.80
2017-12-28T01:02:50.565Z,0.70
2017-12-28T01:05:18.130Z,0.80
2017-12-28T01:07:45.746Z,0.73
2017-12-28T01:10:13.322Z,0.70
2017-12-28T01:12:40.927Z,0.60
2017-12-28T01:15:08.517Z,0.60
2017-12-28T01:17:36.413Z,0.60
2017-12-28T01:20:03.972Z,0.60
2017-12-28T01:22:31.588Z,0.70
2017-12-28T01:24:59.744Z,0.70
2017-12-28T01:27:27.347Z,0.80
2017-12-28T01:29:54.928Z,0.70
2017-12-28T01:32:22.530Z,0.70
2017-12-28T01:34:50.117Z,0.80
2017-12-28T01:37:17.727Z,0.60
2017-12-28T01:39:45.349Z,0.60
2017-12-28T01:42:12.963Z,0.60
2017-12-28T01:44:40.544Z,0.60
2017-12-28T01:47:08.143Z,0.70
2017-12-28T01:49:35.716Z,0.77
2017-12-28T01:52:03.643Z,0.77
2017-12-28T01:54:31.196Z,0.90
2017-12-28T01:56:58.790Z,0.80
2017-12-28T01:59:26.388Z,1.03
2017-12-28T02:01:53.997Z,0.90
2017-12-28T02:04:21.588Z,0.90
2017-12-28T02:06:49.213Z,0.87
2017-12-28T02:09:16.813Z,0.90
2017-12-28T02:11:44.430Z,0.80
2017-12-28T02:14:12.026Z,0.90
2017-12-28T02:16:39.589Z,0.90
2017-12-28T02:19:07.210Z,0.80
2017-12-28T02:21:34.796Z,0.80
2017-12-28T02:24:02.395Z,0.80
2017-12-28T02:26:29.967Z,0.87
2017-12-28T02:28:57.751Z,0.80
2017-12-28T02:31:25.324Z,0.80
2017-12-28T02:33:52.956Z,0.80
2017-12-28T02:36:20.503Z,0.60
2017-12-28T02:38:48.097Z,0.70
2017-12-28T02:41:15.704Z,0.70
2017-12-28T02:43:45.061Z,0.60
2017-12-28T02:46:12.644Z,0.70
2017-12-28T02:48:40.264Z,0.70
2017-12-28T02:51:07.859Z,0.70
2017-12-28T02:53:35.452Z,0.50
2017-12-28T02:56:04.984Z,0.70
2017-12-28T02:58:32.580Z,0.80
2017-12-28T03:01:00.171Z,0.73
2017-12-28T03:03:27.730Z,0.67
2017-12-28T03:05:55.293Z,1.00
2017-12-28T03:08:22.938Z,0.70
2017-12-28T03:10:50.734Z,0.70
2017-12-28T03:13:18.422Z,0.70
2017-12-28T03:15:45.970Z,0.90
2017-12-28T03:18:13.585Z,0.93
2017-12-28T03:20:41.155Z,0.70
2017-12-28T03:23:08.777Z,0.80
2017-12-28T03:25:36.683Z,0.70
2017-12-28T03:28:04.255Z,0.73
2017-12-28T03:30:31.854Z,1.00
2017-12-28T03:32:59.452Z,0.87
2017-12-28T03:35:27.010Z,1.03
2017-12-28T03:37:54.563Z,1.00
2017-12-28T03:40:22.145Z,1.10
2017-12-28T03:42:49.709Z,1.27
2017-12-28T03:45:17.303Z,1.20
2017-12-28T03:47:45.277Z,1.10
2017-12-28T03:50:13.300Z,1.00
2017-12-28T03:52:40.962Z,1.20
2017-12-28T03:55:08.563Z,1.43
2017-12-28T03:57:36.597Z,1.53
2017-12-28T04:00:04.626Z,1.40
2017-12-28T04:02:32.249Z,1.30
2017-12-28T04:04:59.865Z,1.43
2017-12-28T04:07:27.556Z,1.70
2017-12-28T04:09:55.126Z,2.07
2017-12-28T04:12:22.761Z,2.17
2017-12-28T04:14:50.386Z,2.00
2017-12-28T04:17:18.015Z,2.10
2017-12-28T04:19:45.611Z,2.30
2017-12-28T04:22:13.202Z,2.10
2017-12-28T04:24:41.037Z,2.10
2017-12-28T04:27:08.629Z,2.57
2017-12-28T04:29:36.257Z,2.33
2017-12-28T04:32:03.845Z,2.30
2017-12-28T04:34:31.446Z,2.30
2017-12-28T04:36:59.035Z,2.70
2017-12-28T04:39:26.653Z,3.13
2017-12-28T04:41:54.248Z,3.10
2017-12-28T04:44:21.838Z,3.00
2017-12-28T04:46:49.475Z,2.90
2017-12-28T04:49:17.047Z,2.33
2017-12-28T04:51:44.743Z,2.67
2017-12-28T04:54:12.346Z,2.97
2017-12-28T04:56:39.954Z,2.97
2017-12-28T04:59:07.510Z,3.20
2017-12-28T05:01:35.118Z,2.80
2017-12-28T05:04:02.721Z,3.37
2017-12-28T05:06:30.326Z,3.10
2017-12-28T05:08:58.070Z,3.43
2017-12-28T05:11:26.032Z,2.73
2017-12-28T05:13:53.648Z,2.80
2017-12-28T05:16:21.223Z,2.90
2017-12-28T05:18:48.798Z,2.57
2017-12-28T05:21:16.412Z,3.00
2017-12-28T05:23:43.969Z,2.57
2017-12-28T05:26:11.566Z,3.23
2017-12-28T05:28:39.150Z,3.37
2017-12-28T05:31:06.816Z,2.93
2017-12-28T05:33:34.523Z,3.20
2017-12-28T05:36:02.099Z,2.80
2017-12-28T05:38:29.688Z,3.13
2017-12-28T05:40:57.704Z,2.77
2017-12-28T05:43:25.251Z,2.40
2017-12-28T05:45:52.881Z,2.27
2017-12-28T05:48:20.457Z,2.43
2017-12-28T05:50:48.063Z,2.50
2017-12-28T05:53:15.641Z,2.30
2017-12-28T05:55:43.216Z,2.23
2017-12-28T05:58:11.332Z,1.97
2017-12-28T06:00:38.883Z,1.53
2017-12-28T06:03:06.514Z,1.77
2017-12-28T06:05:34.479Z,1.73
2017-12-28T06:08:02.280Z,1.70
2017-12-28T06:10:30.146Z,1.47
2017-12-28T06:12:57.717Z,1.50
2017-12-28T06:15:25.350Z,1.60
2017-12-28T06:17:52.953Z,1.20
2017-12-28T06:20:20.555Z,1.50
2017-12-28T06:22:48.142Z,1.40
2017-12-28T06:25:15.699Z,1.80
2017-12-28T06:27:43.317Z,1.60
2017-12-28T06:30:10.907Z,1.63
2017-12-28T06:32:38.481Z,1.50
2017-12-28T06:35:06.063Z,1.40
2017-12-28T06:37:33.856Z,1.40
2017-12-28T06:40:01.439Z,1.30
2017-12-28T06:42:29.277Z,1.50
2017-12-28T06:44:56.857Z,1.53
2017-12-28T06:47:24.454Z,1.27
2017-12-28T06:49:52.006Z,1.43
2017-12-28T06:52:19.639Z,1.20
2017-12-28T06:54:47.202Z,1.40
2017-12-28T06:57:14.886Z,1.20
2017-12-28T06:59:42.520Z,1.73
2017-12-28T07:02:10.065Z,1.50
2017-12-28T07:04:37.709Z,1.77
2017-12-28T07:07:05.375Z,2.30
2017-12-28T07:09:32.949Z,2.37
2017-12-28T07:12:00.518Z,2.20
2017-12-28T07:14:28.154Z,2.40
2017-12-28T07:16:55.803Z,2.27
2017-12-28T07:19:23.410Z,2.00
2017-12-28T07:21:51.018Z,2.60
2017-12-28T07:24:18.657Z,5.57
2017-12-28T07:26:46.204Z,2.20
2017-12-28T07:29:13.805Z,2.23
2017-12-28T07:31:41.349Z,2.63
2017-12-28T07:34:09.269Z,2.40
2017-12-28T07:36:36.834Z,2.70
2017-12-28T07:39:04.645Z,2.83
2017-12-28T07:41:32.242Z,2.83
2017-12-28T07:43:59.832Z,3.20
2017-12-28T07:46:27.399Z,3.17
2017-12-28T07:48:55.027Z,3.43
2017-12-28T07:51:22.620Z,2.90
2017-12-28T07:53:50.259Z,2.67
2017-12-28T07:56:17.809Z,2.50
2017-12-28T07:58:45.439Z,2.87
2017-12-28T08:01:13.021Z,2.70
2017-12-28T08:03:42.320Z,2.10
2017-12-28T08:06:11.211Z,2.30
2017-12-28T08:08:39.730Z,2.67
2017-12-28T08:11:08.700Z,2.27
2017-12-28T08:13:37.029Z,2.23
2017-12-28T08:16:06.467Z,2.07
2017-12-28T08:18:35.311Z,2.30
2017-12-28T08:21:05.464Z,2.47
2017-12-28T08:23:34.927Z,2.13
2017-12-28T08:26:02.787Z,2.07
2017-12-28T08:28:31.439Z,2.40
2017-12-28T08:30:59.842Z,2.73
2017-12-28T08:33:27.471Z,2.87
2017-12-28T08:35:56.140Z,2.70
2017-12-28T08:38:23.731Z,2.90
2017-12-28T08:40:51.550Z,2.73
2017-12-28T08:43:19.154Z,2.93
2017-12-28T08:45:47.474Z,2.63
2017-12-28T08:48:15.031Z,2.53
2017-12-28T08:50:42.817Z,2.83
2017-12-28T08:53:10.380Z,2.63
2017-12-28T08:55:38.834Z,2.93
2017-12-28T08:58:06.428Z,2.63
2017-12-28T09:00:34.030Z,3.07
2017-12-28T09:03:01.624Z,3.43
2017-12-28T09:05:29.222Z,2.90
2017-12-28T09:07:57.235Z,3.13
2017-12-28T09:10:24.836Z,3.00
2017-12-28T09:12:52.475Z,3.30
2017-12-28T09:15:20.074Z,3.47
2017-12-28T09:17:47.675Z,3.53
2017-12-28T09:20:15.258Z,3.77
2017-12-28T09:22:42.822Z,3.47
2017-12-28T09:25:10.468Z,3.43
2017-12-28T09:27:38.033Z,3.80
2017-12-28T09:30:05.597Z,3.43
2017-12-28T09:32:33.203Z,3.10
2017-12-28T09:35:00.783Z,3.97
2017-12-28T09:37:28.405Z,4.23
2017-12-28T09:39:55.959Z,3.90
2017-12-28T09:42:23.583Z,4.17
2017-12-28T09:44:51.202Z,3.87
2017-12-28T09:47:19.225Z,4.00
2017-12-28T09:49:46.810Z,4.40
2017-12-28T09:52:14.441Z,3.47
2017-12-28T09:54:41.999Z,3.70
2017-12-28T09:57:09.606Z,4.30
2017-12-28T09:59:37.161Z,4.20
2017-12-28T10:02:05.170Z,4.07
2017-12-28T10:04:32.714Z,3.90
2017-12-28T10:07:00.291Z,4.67
2017-12-28T10:09:27.860Z,4.57
2017-12-28T10:11:55.458Z,4.37
2017-12-28T10:14:23.047Z,3.97
2017-12-28T10:16:50.638Z,4.30
2017-12-28T10:19:18.205Z,4.23
2017-12-28T10:21:46.029Z,4.03
2017-12-28T10:24:13.595Z,4.77
2017-12-28T10:26:41.256Z,3.80
2017-12-28T10:29:08.865Z,4.53
2017-12-28T10:31:36.700Z,3.97
2017-12-28T10:34:04.282Z,4.30
2017-12-28T10:36:32.005Z,4.00
2017-12-28T10:38:59.591Z,4.47
2017-12-28T10:41:27.170Z,4.20
2017-12-28T10:43:55.142Z,3.87
2017-12-28T10:46:22.728Z,4.47
2017-12-28T10:48:50.338Z,4.47
2017-12-28T10:51:17.930Z,4.90
2017-12-28T10:53:45.555Z,4.70
2017-12-28T10:56:13.139Z,4.63
2017-12-28T10:58:40.730Z,4.17
2017-12-28T11:01:08.326Z,3.90
2017-12-28T11:03:35.970Z,4.20
2017-12-28T11:06:03.565Z,4.17
2017-12-28T11:08:31.218Z,4.60
2017-12-28T11:10:58.856Z,4.40
2017-12-28T11:13:26.470Z,4.57
2017-12-28T11:15:54.111Z,4.20
2017-12-28T11:18:22.106Z,4.77
2017-12-28T11:20:49.681Z,5.00
2017-12-28T11:23:17.284Z,4.93
2017-12-28T11:25:44.887Z,4.90
2017-12-28T11:28:12.531Z,4.80
2017-12-28T11:30:40.353Z,4.30
2017-12-28T11:33:07.939Z,4.87
2017-12-28T11:35:35.566Z,5.10
2017-12-28T11:38:03.191Z,4.10
2017-12-28T11:40:30.823Z,4.87
2017-12-28T11:42:58.536Z,5.00
2017-12-28T11:45:26.118Z,4.50
2017-12-28T11:47:54.507Z,4.97
2017-12-28T11:50:22.107Z,4.67
2017-12-28T11:55:49.883Z,4.80
2017-12-28T11:58:17.475Z,3.77
2017-12-28T12:00:50.743Z,4.70
2017-12-28T12:03:23.874Z,4.50
2017-12-28T12:05:51.452Z,3.83
2017-12-28T12:08:25.220Z,4.60
2017-12-28T12:10:53.173Z,4.85
2017-12-28T12:13:20.770Z,4.13
2017-12-28T12:15:48.360Z,3.90
2017-12-28T12:18:16.010Z,4.57
2017-12-28T12:20:43.615Z,4.00
2017-12-28T12:23:11.214Z,4.47
2017-12-28T12:25:39.034Z,4.70
2017-12-28T12:28:06.597Z,4.27
2017-12-28T12:30:34.196Z,4.63
2017-12-28T12:33:02.171Z,4.57
2017-12-28T12:35:29.775Z,4.57
2017-12-28T12:37:57.338Z,4.83
2017-12-28T12:40:24.947Z,4.93
2017-12-28T12:42:52.756Z,4.70
2017-12-28T12:45:20.337Z,5.30
2017-12-28T12:47:48.875Z,4.33
2017-12-28T12:50:16.511Z,3.73
2017-12-28T12:52:44.103Z,3.90
2017-12-28T12:55:11.717Z,4.67
2017-12-28T12:57:39.311Z,4.73
2017-12-28T13:00:06.912Z,4.40
2017-12-28T13:02:34.485Z,4.27
2017-12-28T13:05:02.117Z,4.30
2017-12-28T13:07:29.660Z,3.57
2017-12-28T13:09:57.282Z,3.83
2017-12-28T13:12:24.870Z,3.50
2017-12-28T13:14:52.499Z,4.03
2017-12-28T13:17:20.104Z,3.47
2017-12-28T13:19:47.697Z,4.13
2017-12-28T13:22:15.307Z,3.70
2017-12-28T13:24:42.897Z,3.80
2017-12-28T13:27:10.457Z,3.63
2017-12-28T13:29:38.063Z,4.30
2017-12-28T13:32:05.686Z,3.97
2017-12-28T13:34:33.284Z,3.50
2017-12-28T13:37:00.906Z,3.90
2017-12-28T13:39:28.874Z,4.77
2017-12-28T13:41:56.471Z,4.00
2017-12-28T13:44:24.051Z,3.70
2017-12-28T13:46:51.694Z,3.73
2017-12-28T13:49:19.291Z,4.30
2017-12-28T13:51:47.099Z,3.73
2017-12-28T13:54:14.732Z,3.73
2017-12-28T13:56:42.347Z,3.93
2017-12-28T13:59:09.907Z,3.90
2017-12-28T14:01:37.494Z,4.30
2017-12-28T14:04:05.055Z,3.97
2017-12-28T14:06:32.691Z,4.35
2017-12-28T14:09:00.312Z,4.07
2017-12-28T14:11:27.939Z,4.23
2017-12-28T14:13:55.679Z,4.10
2017-12-28T14:16:23.292Z,3.87
2017-12-28T14:18:50.873Z,3.33
2017-12-28T14:21:18.504Z,3.85
2017-12-28T14:23:46.126Z,3.83
2017-12-28T14:26:13.728Z,3.70
2017-12-28T14:28:41.353Z,3.80
2017-12-28T14:31:08.965Z,4.00
2017-12-28T14:33:36.553Z,4.10
2017-12-28T14:36:04.130Z,3.60
2017-12-28T14:38:31.986Z,2.83
2017-12-28T14:40:59.602Z,3.50
2017-12-28T14:43:27.397Z,3.27
2017-12-28T14:45:54.999Z,3.30
2017-12-28T14:48:22.575Z,3.47
2017-12-28T14:50:50.421Z,3.20
2017-12-28T14:53:18.040Z,3.13
2017-12-28T14:55:45.597Z,3.07
2017-12-28T14:58:13.224Z,2.93
2017-12-28T15:00:40.837Z,3.37
2017-12-28T15:03:08.459Z,2.70
2017-12-28T15:05:36.029Z,2.57
2017-12-28T15:08:03.700Z,3.10
2017-12-28T15:10:31.283Z,3.37
2017-12-28T15:12:59.039Z,4.13
2017-12-28T15:15:26.650Z,2.50
2017-12-28T15:17:54.244Z,3.27
2017-12-28T15:20:21.833Z,3.53
2017-12-28T15:22:49.476Z,3.30
2017-12-28T15:25:17.105Z,2.90
2017-12-28T15:27:44.717Z,3.27
2017-12-28T15:30:12.337Z,3.00
2017-12-28T15:32:39.931Z,2.70
2017-12-28T15:35:07.564Z,3.10
2017-12-28T15:37:35.163Z,2.50
2017-12-28T15:40:03.159Z,2.60
2017-12-28T15:42:30.810Z,2.90
2017-12-28T15:44:58.395Z,2.57
2017-12-28T15:47:25.985Z,3.07
2017-12-28T15:49:53.608Z,2.90
2017-12-28T15:52:21.241Z,3.07
2017-12-28T15:54:48.862Z,2.90
2017-12-28T15:57:16.473Z,2.70
2017-12-28T15:59:44.073Z,2.57
2017-12-28T16:02:11.749Z,3.10
2017-12-28T16:04:39.341Z,2.40
2017-12-28T16:07:06.951Z,2.60
2017-12-28T16:09:34.531Z,2.63
2017-12-28T16:12:02.234Z,2.10
2017-12-28T16:14:29.871Z,2.55
2017-12-28T16:16:57.462Z,2.57
2017-12-28T16:19:25.089Z,1.90
2017-12-28T16:21:52.711Z,2.90
2017-12-28T16:24:20.390Z,2.87
2017-12-28T16:26:48.014Z,2.45
2017-12-28T16:29:15.673Z,2.35
2017-12-28T16:31:43.340Z,2.33
2017-12-28T16:34:10.977Z,2.47
2017-12-28T16:36:38.547Z,2.23
2017-12-28T16:39:06.186Z,2.25
2017-12-28T16:41:33.841Z,2.17
2017-12-28T16:44:01.478Z,1.87
2017-12-28T16:46:29.029Z,2.53
2017-12-28T16:48:56.618Z,2.10
2017-12-28T16:51:24.177Z,1.90
2017-12-28T16:53:51.770Z,1.80
2017-12-28T16:56:19.449Z,2.28
2017-12-28T16:58:49.309Z,2.00
2017-12-28T17:01:18.937Z,2.20
2017-12-28T17:03:46.557Z,2.35
2017-12-28T17:06:14.217Z,2.20
2017-12-28T17:08:41.866Z,1.80
2017-12-28T17:11:09.523Z,2.07
2017-12-28T17:13:37.168Z,2.40
2017-12-28T17:16:06.540Z,2.00
2017-12-28T17:18:34.551Z,2.20
2017-12-28T17:21:02.579Z,1.77
2017-12-28T17:23:30.193Z,2.20
2017-12-28T17:25:57.843Z,2.12
2017-12-28T17:28:25.870Z,1.92
2017-12-28T17:30:53.920Z,2.70
2017-12-28T17:33:21.504Z,2.33
2017-12-28T17:35:50.333Z,2.12
2017-12-28T17:38:18.030Z,2.30
2017-12-28T17:40:45.667Z,2.35
2017-12-28T17:43:13.295Z,2.47
2017-12-28T17:45:40.948Z,2.37
2017-12-28T17:48:08.584Z,2.90
2017-12-28T17:50:36.246Z,2.47
2017-12-28T17:53:03.872Z,2.50
2017-12-28T17:55:31.491Z,2.60
2017-12-28T17:57:59.089Z,2.50
2017-12-28T18:00:26.729Z,2.80
2017-12-28T18:02:54.354Z,2.90
2017-12-28T18:05:22.000Z,2.80
2017-12-28T18:07:49.667Z,2.60
2017-12-28T18:10:17.317Z,2.53
2017-12-28T18:12:45.703Z,2.17
2017-12-28T18:15:13.345Z,2.30
2017-12-28T18:17:40.995Z,2.20
2017-12-28T18:20:08.646Z,2.23
2017-12-28T18:22:36.196Z,2.22
2017-12-28T18:25:03.888Z,2.30
2017-12-28T18:27:31.557Z,2.28
2017-12-28T18:29:59.215Z,2.75
2017-12-28T18:32:26.796Z,2.70
2017-12-28T18:34:54.469Z,2.55
2017-12-28T18:37:22.120Z,2.35
2017-12-28T18:39:49.747Z,2.20
2017-12-28T18:42:17.412Z,1.90
2017-12-28T18:44:45.039Z,2.25
2017-12-28T18:47:12.673Z,2.47
2017-12-28T18:49:40.314Z,2.60
2017-12-28T18:52:07.966Z,2.55
2017-12-28T18:54:35.601Z,2.30
2017-12-28T18:57:03.305Z,2.00
2017-12-28T18:59:30.898Z,1.83
2017-12-28T19:01:58.551Z,2.35
2017-12-28T19:04:26.176Z,1.90
2017-12-28T19:06:53.846Z,2.47
2017-12-28T19:09:21.484Z,2.25
2017-12-28T19:11:49.714Z,2.10
2017-12-28T19:14:17.334Z,2.22
2017-12-28T19:16:45.015Z,2.17
2017-12-28T19:19:12.633Z,2.30
2017-12-28T19:21:40.288Z,1.70
2017-12-28T19:24:07.907Z,1.95
2017-12-28T19:26:35.577Z,1.92
2017-12-28T19:29:03.195Z,2.37
2017-12-28T19:31:30.869Z,2.22
2017-12-28T19:33:58.525Z,1.80
2017-12-28T19:36:26.194Z,2.30
2017-12-28T19:38:53.857Z,2.30
2017-12-28T19:41:21.867Z,2.10
2017-12-28T19:43:49.577Z,2.25
2017-12-28T19:46:17.217Z,2.10
2017-12-28T19:48:44.843Z,1.70
2017-12-28T19:51:12.537Z,1.80
2017-12-28T19:53:40.173Z,1.73
2017-12-28T19:56:07.805Z,2.17
2017-12-28T19:58:35.524Z,2.00
2017-12-28T20:03:36.067Z,1.70
2017-12-28T20:06:03.719Z,1.92
2017-12-28T20:08:31.370Z,1.92
2017-12-28T20:10:59.055Z,1.85
2017-12-28T20:13:26.694Z,2.45
2017-12-28T20:15:54.388Z,1.60
2017-12-28T20:18:22.054Z,1.75
2017-12-28T20:20:49.750Z,2.00
2017-12-28T20:23:17.409Z,2.30
2017-12-28T20:25:45.246Z,2.13
2017-12-28T20:28:13.034Z,1.85
2017-12-28T20:30:40.686Z,1.83
2017-12-28T20:33:08.326Z,1.67
2017-12-28T20:35:35.972Z,1.52
2017-12-28T20:38:03.674Z,1.30
2017-12-28T20:40:31.349Z,1.43
2017-12-28T20:42:59.026Z,1.40
2017-12-28T20:45:26.659Z,1.20
2017-12-28T20:47:54.296Z,1.35
2017-12-28T20:50:21.990Z,1.50
2017-12-28T20:52:49.655Z,1.33
2017-12-28T20:55:17.747Z,1.60
2017-12-28T20:57:45.423Z,1.67
2017-12-28T21:00:13.082Z,1.70
2017-12-28T21:02:40.694Z,1.80
2017-12-28T21:05:08.378Z,1.97
2017-12-28T21:07:36.012Z,1.80
2017-12-28T21:10:03.646Z,2.53
2017-12-28T21:12:31.294Z,1.80
2017-12-28T21:14:59.347Z,1.92
2017-12-28T21:17:27.010Z,1.73
2017-12-28T21:19:54.684Z,1.80
2017-12-28T21:22:22.288Z,1.90
2017-12-28T21:24:49.913Z,2.22
2017-12-28T21:27:17.572Z,2.10
2017-12-28T21:29:45.187Z,2.33
2017-12-28T21:32:12.910Z,1.90
2017-12-28T21:34:40.618Z,2.30
2017-12-28T21:37:08.270Z,2.08
2017-12-28T21:39:35.934Z,2.25
2017-12-28T21:42:03.555Z,2.15
2017-12-28T21:44:31.223Z,2.03
2017-12-28T21:46:58.844Z,2.12
2017-12-28T21:49:26.498Z,1.67
2017-12-28T21:51:54.166Z,1.95
2017-12-28T21:54:22.632Z,1.80
2017-12-28T21:56:50.277Z,2.45
2017-12-28T21:59:17.971Z,2.10
2017-12-28T22:01:45.648Z,1.87
2017-12-28T22:04:13.328Z,1.85
2017-12-28T22:06:40.968Z,1.50
2017-12-28T22:09:08.604Z,1.48
2017-12-28T22:11:36.238Z,1.33
2017-12-28T22:14:03.894Z,1.50
2017-12-28T22:16:31.559Z,1.58
2017-12-28T22:18:59.236Z,1.15
2017-12-28T22:21:26.867Z,1.23
2017-12-28T22:23:54.502Z,1.40
2017-12-28T22:26:22.150Z,1.20
2017-12-28T22:28:49.828Z,2.15
2017-12-28T22:31:17.470Z,1.60
2017-12-28T22:33:45.114Z,1.52
2017-12-28T22:36:13.547Z,1.48
2017-12-28T22:38:41.306Z,1.40
2017-12-28T22:41:08.979Z,1.25
2017-12-28T22:43:36.590Z,1.40
2017-12-28T22:46:04.252Z,1.30
2017-12-28T22:48:31.913Z,1.58
2017-12-28T22:50:59.595Z,1.92
2017-12-28T22:53:27.236Z,1.70
2017-12-28T22:55:54.854Z,1.73
2017-12-28T22:58:24.510Z,1.67
2017-12-28T23:00:52.163Z,1.87
2017-12-28T23:03:19.822Z,1.77
2017-12-28T23:05:47.482Z,1.98
2017-12-28T23:08:15.115Z,1.95
2017-12-28T23:10:42.764Z,2.33
2017-12-28T23:13:10.378Z,2.30
2017-12-28T23:15:38.056Z,2.40
2017-12-28T23:18:05.705Z,1.80
2017-12-28T23:20:33.567Z,2.40
2017-12-28T23:23:01.206Z,2.10
2017-12-28T23:25:28.881Z,2.35
2017-12-28T23:27:56.547Z,2.20
2017-12-28T23:30:24.186Z,2.75
2017-12-28T23:32:51.803Z,2.12
2017-12-28T23:35:19.480Z,1.92
2017-12-28T23:37:47.108Z,2.78
2017-12-28T23:40:14.762Z,2.78
2017-12-28T23:42:42.409Z,2.70
2017-12-28T23:45:10.023Z,2.58
2017-12-28T23:47:37.653Z,2.90
2017-12-28T23:50:05.282Z,2.70
2017-12-28T23:52:32.921Z,2.28
2017-12-28T23:55:00.511Z,2.80
2017-12-28T23:57:28.127Z,2.75
2017-12-28T23:59:55.765Z,2.75
